sensor_id;sensor_type;location;lat;lon;timestamp;P1;durP1;ratioP1;P2;durP2;ratioP2
18046;SDS011;9148;51.454;13.862;2022-12-07T00:01:25;6.67;;;3.53;;
18046;SDS011;9148;51.454;13.862;2022-12-07T00:03:54;4.53;;;3.83;;
18046;SDS011;9148;51.454;13.862;2022-12-07T00:06:25;5.40;;;3.97;;
18046;SDS011;9148;51.454;13.862;2022-12-07T00:08:51;5.47;;;4.73;;
18046;SDS011;9148;51.454;13.862;2022-12-07T00:11:18;6.10;;;3.63;;
18046;SDS011;9148;51.454;13.862;2022-12-07T00:13:47;9.70;;;3.93;;
18046;SDS011;9148;51.454;13.862;2022-12-07T00:16:18;6.27;;;3.77;;
18046;SDS011;9148;51.454;13.862;2022-12-07T00:18:45;4.60;;;3.43;;
18046;SDS011;9148;51.454;13.862;2022-12-07T00:21:13;7.27;;;3.13;;
18046;SDS011;9148;51.454;13.862;2022-12-07T00:23:42;3.67;;;3.00;;
18046;SDS011;9148;51.454;13.862;2022-12-07T00:26:10;6.83;;;3.43;;
18046;SDS011;9148;51.454;13.862;2022-12-07T00:28:47;5.83;;;4.10;;
18046;SDS011;9148;51.454;13.862;2022-12-07T00:31:18;3.83;;;3.40;;
18046;SDS011;9148;51.454;13.862;2022-12-07T00:33:46;8.83;;;4.53;;
18046;SDS011;9148;51.454;13.862;2022-12-07T00:36:13;7.50;;;3.70;;
18046;SDS011;9148;51.454;13.862;2022-12-07T00:38:41;8.47;;;4.43;;
18046;SDS011;9148;51.454;13.862;2022-12-07T00:41:09;6.03;;;3.97;;
18046;SDS011;9148;51.454;13.862;2022-12-07T00:43:44;5.73;;;4.40;;
18046;SDS011;9148;51.454;13.862;2022-12-07T00:46:12;5.07;;;4.57;;
18046;SDS011;9148;51.454;13.862;2022-12-07T00:48:39;7.20;;;3.80;;
18046;SDS011;9148;51.454;13.862;2022-12-07T00:51:05;6.67;;;4.00;;
18046;SDS011;9148;51.454;13.862;2022-12-07T00:53:35;8.10;;;4.77;;
18046;SDS011;9148;51.454;13.862;2022-12-07T00:56:09;7.57;;;4.83;;
18046;SDS011;9148;51.454;13.862;2022-12-07T00:58:38;8.23;;;4.80;;
18046;SDS011;9148;51.454;13.862;2022-12-07T01:01:05;10.83;;;5.27;;
18046;SDS011;9148;51.454;13.862;2022-12-07T01:03:32;12.20;;;6.63;;
18046;SDS011;9148;51.454;13.862;2022-12-07T01:05:59;6.13;;;5.20;;
18046;SDS011;9148;51.454;13.862;2022-12-07T01:08:25;11.90;;;6.13;;
18046;SDS011;9148;51.454;13.862;2022-12-07T01:10:59;8.33;;;6.10;;
18046;SDS011;9148;51.454;13.862;2022-12-07T01:13:29;6.93;;;4.63;;
18046;SDS011;9148;51.454;13.862;2022-12-07T01:15:56;7.63;;;4.70;;
18046;SDS011;9148;51.454;13.862;2022-12-07T01:18:25;8.63;;;5.90;;
18046;SDS011;9148;51.454;13.862;2022-12-07T01:23:47;13.67;;;5.50;;
18046;SDS011;9148;51.454;13.862;2022-12-07T01:26:14;8.43;;;6.27;;
18046;SDS011;9148;51.454;13.862;2022-12-07T01:28:42;5.83;;;5.07;;
18046;SDS011;9148;51.454;13.862;2022-12-07T01:31:10;8.77;;;5.33;;
18046;SDS011;9148;51.454;13.862;2022-12-07T01:33:40;7.67;;;5.93;;
18046;SDS011;9148;51.454;13.862;2022-12-07T01:36:08;8.40;;;6.13;;
18046;SDS011;9148;51.454;13.862;2022-12-07T01:38:47;6.73;;;5.50;;
18046;SDS011;9148;51.454;13.862;2022-12-07T01:41:17;7.37;;;5.70;;
18046;SDS011;9148;51.454;13.862;2022-12-07T01:46:47;7.13;;;5.50;;
18046;SDS011;9148;51.454;13.862;2022-12-07T01:49:40;9.37;;;5.47;;
18046;SDS011;9148;51.454;13.862;2022-12-07T01:52:23;10.10;;;6.87;;
18046;SDS011;9148;51.454;13.862;2022-12-07T01:55:07;10.27;;;6.60;;
18046;SDS011;9148;51.454;13.862;2022-12-07T01:57:37;9.17;;;6.47;;
18046;SDS011;9148;51.454;13.862;2022-12-07T02:00:14;8.67;;;5.33;;
18046;SDS011;9148;51.454;13.862;2022-12-07T02:02:42;6.70;;;5.33;;
18046;SDS011;9148;51.454;13.862;2022-12-07T02:05:13;7.20;;;4.67;;
18046;SDS011;9148;51.454;13.862;2022-12-07T02:07:39;8.17;;;5.03;;
18046;SDS011;9148;51.454;13.862;2022-12-07T02:10:15;7.20;;;4.80;;
18046;SDS011;9148;51.454;13.862;2022-12-07T02:12:51;5.60;;;4.70;;
18046;SDS011;9148;51.454;13.862;2022-12-07T02:18:44;8.97;;;4.83;;
18046;SDS011;9148;51.454;13.862;2022-12-07T02:28:25;7.30;;;4.87;;
18046;SDS011;9148;51.454;13.862;2022-12-07T02:31:20;8.23;;;5.87;;
18046;SDS011;9148;51.454;13.862;2022-12-07T02:34:01;6.30;;;4.60;;
18046;SDS011;9148;51.454;13.862;2022-12-07T02:36:34;7.67;;;5.20;;
18046;SDS011;9148;51.454;13.862;2022-12-07T02:39:16;5.80;;;4.10;;
18046;SDS011;9148;51.454;13.862;2022-12-07T02:41:50;8.37;;;4.70;;
18046;SDS011;9148;51.454;13.862;2022-12-07T02:44:22;7.80;;;5.47;;
18046;SDS011;9148;51.454;13.862;2022-12-07T02:47:01;5.57;;;4.30;;
18046;SDS011;9148;51.454;13.862;2022-12-07T02:49:32;5.63;;;4.53;;
18046;SDS011;9148;51.454;13.862;2022-12-07T02:51:58;7.87;;;5.20;;
18046;SDS011;9148;51.454;13.862;2022-12-07T02:54:24;8.97;;;5.20;;
18046;SDS011;9148;51.454;13.862;2022-12-07T02:56:51;5.13;;;3.30;;
18046;SDS011;9148;51.454;13.862;2022-12-07T03:00:00;7.60;;;5.20;;
18046;SDS011;9148;51.454;13.862;2022-12-07T03:02:36;8.47;;;5.20;;
18046;SDS011;9148;51.454;13.862;2022-12-07T03:08:31;7.83;;;5.20;;
18046;SDS011;9148;51.454;13.862;2022-12-07T03:11:40;10.27;;;5.67;;
18046;SDS011;9148;51.454;13.862;2022-12-07T03:14:34;11.60;;;4.93;;
18046;SDS011;9148;51.454;13.862;2022-12-07T03:17:09;8.87;;;5.10;;
18046;SDS011;9148;51.454;13.862;2022-12-07T03:19:48;9.93;;;5.83;;
18046;SDS011;9148;51.454;13.862;2022-12-07T03:22:20;7.03;;;5.47;;
18046;SDS011;9148;51.454;13.862;2022-12-07T03:24:49;10.70;;;6.23;;
18046;SDS011;9148;51.454;13.862;2022-12-07T03:27:21;9.03;;;5.20;;
18046;SDS011;9148;51.454;13.862;2022-12-07T03:29:54;13.30;;;6.13;;
18046;SDS011;9148;51.454;13.862;2022-12-07T03:35:27;8.77;;;6.30;;
18046;SDS011;9148;51.454;13.862;2022-12-07T03:38:08;8.33;;;6.53;;
18046;SDS011;9148;51.454;13.862;2022-12-07T03:43:20;9.53;;;7.03;;
18046;SDS011;9148;51.454;13.862;2022-12-07T03:45:56;14.27;;;7.17;;
18046;SDS011;9148;51.454;13.862;2022-12-07T03:52:08;9.77;;;7.73;;
18046;SDS011;9148;51.454;13.862;2022-12-07T03:57:45;11.63;;;7.10;;
18046;SDS011;9148;51.454;13.862;2022-12-07T04:00:15;14.20;;;6.77;;
18046;SDS011;9148;51.454;13.862;2022-12-07T04:02:41;10.63;;;7.03;;
18046;SDS011;9148;51.454;13.862;2022-12-07T04:05:07;9.37;;;6.17;;
18046;SDS011;9148;51.454;13.862;2022-12-07T04:07:34;8.23;;;6.30;;
18046;SDS011;9148;51.454;13.862;2022-12-07T04:09:59;11.80;;;8.07;;
18046;SDS011;9148;51.454;13.862;2022-12-07T04:12:25;9.40;;;5.80;;
18046;SDS011;9148;51.454;13.862;2022-12-07T04:14:51;9.70;;;7.33;;
18046;SDS011;9148;51.454;13.862;2022-12-07T04:17:16;14.47;;;6.90;;
18046;SDS011;9148;51.454;13.862;2022-12-07T04:19:42;9.60;;;6.03;;
18046;SDS011;9148;51.454;13.862;2022-12-07T04:22:08;12.40;;;6.37;;
18046;SDS011;9148;51.454;13.862;2022-12-07T04:24:33;14.13;;;7.73;;
18046;SDS011;9148;51.454;13.862;2022-12-07T04:26:59;9.73;;;7.33;;
18046;SDS011;9148;51.454;13.862;2022-12-07T04:29:25;9.03;;;6.33;;
18046;SDS011;9148;51.454;13.862;2022-12-07T04:31:52;11.40;;;6.40;;
18046;SDS011;9148;51.454;13.862;2022-12-07T04:34:18;10.83;;;6.30;;
18046;SDS011;9148;51.454;13.862;2022-12-07T04:36:44;10.90;;;6.43;;
18046;SDS011;9148;51.454;13.862;2022-12-07T04:39:24;9.27;;;6.60;;
18046;SDS011;9148;51.454;13.862;2022-12-07T04:41:53;11.80;;;6.50;;
18046;SDS011;9148;51.454;13.862;2022-12-07T04:44:20;12.70;;;8.33;;
18046;SDS011;9148;51.454;13.862;2022-12-07T04:46:46;9.00;;;6.83;;
18046;SDS011;9148;51.454;13.862;2022-12-07T04:49:13;15.37;;;7.13;;
18046;SDS011;9148;51.454;13.862;2022-12-07T04:51:39;9.93;;;6.50;;
18046;SDS011;9148;51.454;13.862;2022-12-07T04:54:05;13.40;;;6.57;;
18046;SDS011;9148;51.454;13.862;2022-12-07T04:56:31;7.63;;;6.50;;
18046;SDS011;9148;51.454;13.862;2022-12-07T04:58:57;8.80;;;6.77;;
18046;SDS011;9148;51.454;13.862;2022-12-07T05:01:23;9.53;;;6.67;;
18046;SDS011;9148;51.454;13.862;2022-12-07T05:03:49;9.63;;;6.33;;
18046;SDS011;9148;51.454;13.862;2022-12-07T05:06:16;12.83;;;7.77;;
18046;SDS011;9148;51.454;13.862;2022-12-07T05:08:42;10.30;;;7.97;;
18046;SDS011;9148;51.454;13.862;2022-12-07T05:11:08;10.20;;;7.47;;
18046;SDS011;9148;51.454;13.862;2022-12-07T05:13:35;12.30;;;7.10;;
18046;SDS011;9148;51.454;13.862;2022-12-07T05:16:01;8.90;;;6.17;;
18046;SDS011;9148;51.454;13.862;2022-12-07T05:18:27;7.73;;;6.50;;
18046;SDS011;9148;51.454;13.862;2022-12-07T05:20:52;9.83;;;5.70;;
18046;SDS011;9148;51.454;13.862;2022-12-07T05:23:19;10.90;;;6.30;;
18046;SDS011;9148;51.454;13.862;2022-12-07T05:25:45;9.03;;;6.60;;
18046;SDS011;9148;51.454;13.862;2022-12-07T05:28:11;11.73;;;7.57;;
18046;SDS011;9148;51.454;13.862;2022-12-07T05:30:37;8.17;;;5.60;;
18046;SDS011;9148;51.454;13.862;2022-12-07T05:33:03;10.37;;;6.53;;
18046;SDS011;9148;51.454;13.862;2022-12-07T05:35:30;12.20;;;7.67;;
18046;SDS011;9148;51.454;13.862;2022-12-07T05:37:55;9.87;;;6.03;;
18046;SDS011;9148;51.454;13.862;2022-12-07T05:40:22;5.23;;;4.07;;
18046;SDS011;9148;51.454;13.862;2022-12-07T05:42:47;11.13;;;5.90;;
18046;SDS011;9148;51.454;13.862;2022-12-07T05:45:13;12.23;;;6.57;;
18046;SDS011;9148;51.454;13.862;2022-12-07T05:47:39;8.77;;;6.43;;
18046;SDS011;9148;51.454;13.862;2022-12-07T05:50:05;7.83;;;5.20;;
18046;SDS011;9148;51.454;13.862;2022-12-07T05:52:31;8.00;;;5.93;;
18046;SDS011;9148;51.454;13.862;2022-12-07T05:54:57;8.83;;;5.70;;
18046;SDS011;9148;51.454;13.862;2022-12-07T05:57:23;10.07;;;5.23;;
18046;SDS011;9148;51.454;13.862;2022-12-07T05:59:48;9.67;;;4.13;;
18046;SDS011;9148;51.454;13.862;2022-12-07T06:02:15;8.27;;;4.97;;
18046;SDS011;9148;51.454;13.862;2022-12-07T06:04:43;9.47;;;4.97;;
18046;SDS011;9148;51.454;13.862;2022-12-07T06:07:11;7.97;;;5.53;;
18046;SDS011;9148;51.454;13.862;2022-12-07T06:09:38;5.47;;;4.90;;
18046;SDS011;9148;51.454;13.862;2022-12-07T06:12:05;8.53;;;6.00;;
18046;SDS011;9148;51.454;13.862;2022-12-07T06:14:49;8.20;;;5.07;;
18046;SDS011;9148;51.454;13.862;2022-12-07T06:17:15;6.53;;;5.07;;
18046;SDS011;9148;51.454;13.862;2022-12-07T06:19:41;9.63;;;6.03;;
18046;SDS011;9148;51.454;13.862;2022-12-07T06:22:07;5.60;;;4.63;;
18046;SDS011;9148;51.454;13.862;2022-12-07T06:24:34;5.30;;;4.77;;
18046;SDS011;9148;51.454;13.862;2022-12-07T06:27:00;9.87;;;5.03;;
18046;SDS011;9148;51.454;13.862;2022-12-07T06:29:26;8.03;;;4.87;;
18046;SDS011;9148;51.454;13.862;2022-12-07T06:31:51;6.93;;;5.60;;
18046;SDS011;9148;51.454;13.862;2022-12-07T06:34:18;6.03;;;5.03;;
18046;SDS011;9148;51.454;13.862;2022-12-07T06:36:47;6.43;;;4.90;;
18046;SDS011;9148;51.454;13.862;2022-12-07T06:39:17;11.70;;;5.87;;
18046;SDS011;9148;51.454;13.862;2022-12-07T06:41:44;10.20;;;5.40;;
18046;SDS011;9148;51.454;13.862;2022-12-07T06:44:10;8.47;;;5.53;;
18046;SDS011;9148;51.454;13.862;2022-12-07T06:46:36;4.57;;;3.83;;
18046;SDS011;9148;51.454;13.862;2022-12-07T06:49:02;8.63;;;4.37;;
18046;SDS011;9148;51.454;13.862;2022-12-07T06:51:29;7.90;;;4.87;;
18046;SDS011;9148;51.454;13.862;2022-12-07T06:53:55;6.10;;;4.33;;
18046;SDS011;9148;51.454;13.862;2022-12-07T06:56:21;7.40;;;4.73;;
18046;SDS011;9148;51.454;13.862;2022-12-07T06:58:48;9.00;;;5.17;;
18046;SDS011;9148;51.454;13.862;2022-12-07T07:01:15;6.67;;;5.10;;
18046;SDS011;9148;51.454;13.862;2022-12-07T07:03:43;9.23;;;5.43;;
18046;SDS011;9148;51.454;13.862;2022-12-07T07:06:10;7.57;;;4.67;;
18046;SDS011;9148;51.454;13.862;2022-12-07T07:08:37;9.27;;;5.07;;
18046;SDS011;9148;51.454;13.862;2022-12-07T07:11:04;11.07;;;5.77;;
18046;SDS011;9148;51.454;13.862;2022-12-07T07:13:31;8.87;;;4.70;;
18046;SDS011;9148;51.454;13.862;2022-12-07T07:15:57;8.70;;;6.60;;
18046;SDS011;9148;51.454;13.862;2022-12-07T07:18:23;7.67;;;5.23;;
18046;SDS011;9148;51.454;13.862;2022-12-07T07:20:53;6.27;;;5.03;;
18046;SDS011;9148;51.454;13.862;2022-12-07T07:23:19;8.23;;;4.40;;
18046;SDS011;9148;51.454;13.862;2022-12-07T07:25:46;6.37;;;3.93;;
18046;SDS011;9148;51.454;13.862;2022-12-07T07:28:12;7.13;;;4.63;;
18046;SDS011;9148;51.454;13.862;2022-12-07T07:30:39;7.57;;;4.60;;
18046;SDS011;9148;51.454;13.862;2022-12-07T07:33:05;8.73;;;5.27;;
18046;SDS011;9148;51.454;13.862;2022-12-07T07:35:31;7.80;;;4.67;;
18046;SDS011;9148;51.454;13.862;2022-12-07T07:37:59;8.13;;;5.23;;
18046;SDS011;9148;51.454;13.862;2022-12-07T07:40:25;9.30;;;5.07;;
18046;SDS011;9148;51.454;13.862;2022-12-07T07:42:52;6.20;;;4.73;;
18046;SDS011;9148;51.454;13.862;2022-12-07T07:45:20;6.20;;;4.53;;
18046;SDS011;9148;51.454;13.862;2022-12-07T07:47:47;9.80;;;5.70;;
18046;SDS011;9148;51.454;13.862;2022-12-07T07:50:13;8.97;;;4.60;;
18046;SDS011;9148;51.454;13.862;2022-12-07T07:52:40;7.10;;;4.33;;
18046;SDS011;9148;51.454;13.862;2022-12-07T07:55:07;6.80;;;4.83;;
18046;SDS011;9148;51.454;13.862;2022-12-07T07:57:33;8.73;;;5.57;;
18046;SDS011;9148;51.454;13.862;2022-12-07T08:00:01;10.43;;;5.50;;
18046;SDS011;9148;51.454;13.862;2022-12-07T08:02:31;6.17;;;4.90;;
18046;SDS011;9148;51.454;13.862;2022-12-07T08:04:57;7.93;;;6.20;;
18046;SDS011;9148;51.454;13.862;2022-12-07T08:07:22;5.87;;;4.17;;
18046;SDS011;9148;51.454;13.862;2022-12-07T08:09:48;7.60;;;5.03;;
18046;SDS011;9148;51.454;13.862;2022-12-07T08:12:14;6.73;;;4.67;;
18046;SDS011;9148;51.454;13.862;2022-12-07T08:14:39;5.30;;;4.27;;
18046;SDS011;9148;51.454;13.862;2022-12-07T08:17:06;8.17;;;5.47;;
18046;SDS011;9148;51.454;13.862;2022-12-07T08:19:31;7.00;;;5.00;;
18046;SDS011;9148;51.454;13.862;2022-12-07T08:21:58;6.93;;;4.57;;
18046;SDS011;9148;51.454;13.862;2022-12-07T08:24:24;5.93;;;4.87;;
18046;SDS011;9148;51.454;13.862;2022-12-07T08:26:50;4.60;;;3.87;;
18046;SDS011;9148;51.454;13.862;2022-12-07T08:29:16;4.70;;;3.87;;
18046;SDS011;9148;51.454;13.862;2022-12-07T08:31:41;8.83;;;4.63;;
18046;SDS011;9148;51.454;13.862;2022-12-07T08:34:07;8.23;;;4.60;;
18046;SDS011;9148;51.454;13.862;2022-12-07T08:36:36;10.40;;;5.80;;
18046;SDS011;9148;51.454;13.862;2022-12-07T08:39:02;8.57;;;5.13;;
18046;SDS011;9148;51.454;13.862;2022-12-07T08:41:28;5.80;;;4.23;;
18046;SDS011;9148;51.454;13.862;2022-12-07T08:43:53;9.03;;;4.40;;
18046;SDS011;9148;51.454;13.862;2022-12-07T08:46:20;5.53;;;4.10;;
18046;SDS011;9148;51.454;13.862;2022-12-07T08:48:56;5.03;;;4.43;;
18046;SDS011;9148;51.454;13.862;2022-12-07T08:51:28;5.27;;;4.23;;
18046;SDS011;9148;51.454;13.862;2022-12-07T08:53:54;6.70;;;5.07;;
18046;SDS011;9148;51.454;13.862;2022-12-07T08:56:23;7.13;;;4.83;;
18046;SDS011;9148;51.454;13.862;2022-12-07T08:58:49;5.37;;;4.23;;
18046;SDS011;9148;51.454;13.862;2022-12-07T09:01:15;4.77;;;4.20;;
18046;SDS011;9148;51.454;13.862;2022-12-07T09:03:41;7.07;;;5.07;;
18046;SDS011;9148;51.454;13.862;2022-12-07T09:06:07;7.33;;;3.97;;
18046;SDS011;9148;51.454;13.862;2022-12-07T09:08:34;5.87;;;3.63;;
18046;SDS011;9148;51.454;13.862;2022-12-07T09:11:05;7.93;;;5.23;;
18046;SDS011;9148;51.454;13.862;2022-12-07T09:13:30;7.10;;;5.30;;
18046;SDS011;9148;51.454;13.862;2022-12-07T09:15:56;7.30;;;5.40;;
18046;SDS011;9148;51.454;13.862;2022-12-07T09:18:22;8.67;;;5.00;;
18046;SDS011;9148;51.454;13.862;2022-12-07T09:20:49;6.50;;;4.10;;
18046;SDS011;9148;51.454;13.862;2022-12-07T09:23:14;8.43;;;5.13;;
18046;SDS011;9148;51.454;13.862;2022-12-07T09:25:40;5.53;;;4.37;;
18046;SDS011;9148;51.454;13.862;2022-12-07T09:28:06;4.93;;;3.63;;
18046;SDS011;9148;51.454;13.862;2022-12-07T09:30:32;6.10;;;5.17;;
18046;SDS011;9148;51.454;13.862;2022-12-07T09:32:57;10.87;;;5.07;;
18046;SDS011;9148;51.454;13.862;2022-12-07T09:35:23;6.40;;;4.77;;
18046;SDS011;9148;51.454;13.862;2022-12-07T09:37:50;8.50;;;5.27;;
18046;SDS011;9148;51.454;13.862;2022-12-07T09:40:16;5.63;;;4.70;;
18046;SDS011;9148;51.454;13.862;2022-12-07T09:42:46;6.83;;;5.13;;
18046;SDS011;9148;51.454;13.862;2022-12-07T09:45:21;4.97;;;3.53;;
18046;SDS011;9148;51.454;13.862;2022-12-07T09:47:50;6.17;;;5.03;;
18046;SDS011;9148;51.454;13.862;2022-12-07T09:50:18;6.47;;;4.77;;
18046;SDS011;9148;51.454;13.862;2022-12-07T09:52:48;7.47;;;4.60;;
18046;SDS011;9148;51.454;13.862;2022-12-07T09:55:16;6.10;;;4.10;;
18046;SDS011;9148;51.454;13.862;2022-12-07T09:57:49;5.90;;;4.40;;
18046;SDS011;9148;51.454;13.862;2022-12-07T10:00:17;4.53;;;4.03;;
18046;SDS011;9148;51.454;13.862;2022-12-07T10:02:47;7.07;;;5.07;;
18046;SDS011;9148;51.454;13.862;2022-12-07T10:05:34;4.83;;;4.03;;
18046;SDS011;9148;51.454;13.862;2022-12-07T10:08:04;7.20;;;3.70;;
18046;SDS011;9148;51.454;13.862;2022-12-07T10:10:34;6.23;;;3.93;;
18046;SDS011;9148;51.454;13.862;2022-12-07T10:13:08;4.80;;;4.02;;
18046;SDS011;9148;51.454;13.862;2022-12-07T10:15:50;8.90;;;3.43;;
18046;SDS011;9148;51.454;13.862;2022-12-07T10:18:31;4.57;;;3.22;;
18046;SDS011;9148;51.454;13.862;2022-12-07T10:21:19;5.47;;;3.30;;
18046;SDS011;9148;51.454;13.862;2022-12-07T10:24:04;3.60;;;3.30;;
18046;SDS011;9148;51.454;13.862;2022-12-07T10:26:34;6.77;;;3.53;;
18046;SDS011;9148;51.454;13.862;2022-12-07T10:29:18;3.43;;;2.57;;
18046;SDS011;9148;51.454;13.862;2022-12-07T10:31:52;5.20;;;3.87;;
18046;SDS011;9148;51.454;13.862;2022-12-07T10:34:25;5.47;;;3.80;;
18046;SDS011;9148;51.454;13.862;2022-12-07T10:37:12;8.23;;;3.60;;
18046;SDS011;9148;51.454;13.862;2022-12-07T10:39:42;4.60;;;3.17;;
18046;SDS011;9148;51.454;13.862;2022-12-07T10:42:19;4.37;;;3.00;;
18046;SDS011;9148;51.454;13.862;2022-12-07T10:47:48;5.53;;;3.03;;
18046;SDS011;9148;51.454;13.862;2022-12-07T10:50:41;4.77;;;3.50;;
18046;SDS011;9148;51.454;13.862;2022-12-07T10:54:04;3.87;;;3.37;;
18046;SDS011;9148;51.454;13.862;2022-12-07T10:59:39;3.33;;;2.50;;
18046;SDS011;9148;51.454;13.862;2022-12-07T11:02:24;3.27;;;2.80;;
18046;SDS011;9148;51.454;13.862;2022-12-07T11:13:29;2.53;;;2.23;;
18046;SDS011;9148;51.454;13.862;2022-12-07T11:16:24;6.93;;;3.13;;
18046;SDS011;9148;51.454;13.862;2022-12-07T11:25:30;3.70;;;2.03;;
18046;SDS011;9148;51.454;13.862;2022-12-07T11:28:52;3.17;;;2.33;;
18046;SDS011;9148;51.454;13.862;2022-12-07T11:31:12;9.83;;;2.23;;
18046;SDS011;9148;51.454;13.862;2022-12-07T11:33:49;2.30;;;1.40;;
18046;SDS011;9148;51.454;13.862;2022-12-07T11:36:33;1.77;;;1.47;;
18046;SDS011;9148;51.454;13.862;2022-12-07T11:44:55;1.40;;;0.60;;
18046;SDS011;9148;51.454;13.862;2022-12-07T11:47:40;1.17;;;0.70;;
18046;SDS011;9148;51.454;13.862;2022-12-07T11:50:25;0.93;;;0.47;;
18046;SDS011;9148;51.454;13.862;2022-12-07T11:53:14;0.97;;;0.60;;
18046;SDS011;9148;51.454;13.862;2022-12-07T12:06:37;0.50;;;0.47;;
18046;SDS011;9148;51.454;13.862;2022-12-07T12:09:06;0.50;;;0.40;;
18046;SDS011;9148;51.454;13.862;2022-12-07T12:12:05;0.77;;;0.50;;
18046;SDS011;9148;51.454;13.862;2022-12-07T12:14:59;0.60;;;0.60;;
18046;SDS011;9148;51.454;13.862;2022-12-07T12:21:00;0.40;;;0.30;;
18046;SDS011;9148;51.454;13.862;2022-12-07T12:23:41;1.00;;;0.50;;
18046;SDS011;9148;51.454;13.862;2022-12-07T12:26:15;1.80;;;0.30;;
18046;SDS011;9148;51.454;13.862;2022-12-07T12:28:50;0.37;;;0.10;;
18046;SDS011;9148;51.454;13.862;2022-12-07T12:42:46;0.87;;;0.23;;
18046;SDS011;9148;51.454;13.862;2022-12-07T12:50:19;7.00;;;0.63;;
18046;SDS011;9148;51.454;13.862;2022-12-07T12:55:20;1.07;;;0.40;;
18046;SDS011;9148;51.454;13.862;2022-12-07T13:00:44;0.33;;;0.30;;
18046;SDS011;9148;51.454;13.862;2022-12-07T13:08:49;0.77;;;0.53;;
18046;SDS011;9148;51.454;13.862;2022-12-07T13:17:01;1.10;;;0.60;;
18046;SDS011;9148;51.454;13.862;2022-12-07T13:25:11;1.27;;;0.70;;
18046;SDS011;9148;51.454;13.862;2022-12-07T13:27:51;0.83;;;0.50;;
18046;SDS011;9148;51.454;13.862;2022-12-07T13:30:26;0.53;;;0.53;;
18046;SDS011;9148;51.454;13.862;2022-12-07T13:32:55;1.63;;;1.17;;
18046;SDS011;9148;51.454;13.862;2022-12-07T13:35:34;2.93;;;1.13;;
18046;SDS011;9148;51.454;13.862;2022-12-07T13:38:13;3.60;;;1.27;;
18046;SDS011;9148;51.454;13.862;2022-12-07T13:41:04;3.00;;;0.90;;
18046;SDS011;9148;51.454;13.862;2022-12-07T13:43:42;1.20;;;1.10;;
18046;SDS011;9148;51.454;13.862;2022-12-07T13:46:14;1.70;;;1.60;;
18046;SDS011;9148;51.454;13.862;2022-12-07T13:48:51;1.00;;;1.00;;
18046;SDS011;9148;51.454;13.862;2022-12-07T13:51:36;1.57;;;1.17;;
18046;SDS011;9148;51.454;13.862;2022-12-07T13:54:08;2.97;;;1.67;;
18046;SDS011;9148;51.454;13.862;2022-12-07T13:56:36;1.63;;;1.17;;
18046;SDS011;9148;51.454;13.862;2022-12-07T13:59:05;1.43;;;1.33;;
18046;SDS011;9148;51.454;13.862;2022-12-07T14:01:39;1.80;;;1.30;;
18046;SDS011;9148;51.454;13.862;2022-12-07T14:07:01;3.00;;;1.30;;
18046;SDS011;9148;51.454;13.862;2022-12-07T14:09:55;3.53;;;2.30;;
18046;SDS011;9148;51.454;13.862;2022-12-07T14:12:28;2.97;;;1.97;;
18046;SDS011;9148;51.454;13.862;2022-12-07T14:14:55;2.93;;;2.17;;
18046;SDS011;9148;51.454;13.862;2022-12-07T14:17:23;2.73;;;2.17;;
18046;SDS011;9148;51.454;13.862;2022-12-07T14:19:51;3.63;;;2.20;;
18046;SDS011;9148;51.454;13.862;2022-12-07T14:22:29;3.90;;;2.00;;
18046;SDS011;9148;51.454;13.862;2022-12-07T14:25:22;2.93;;;1.87;;
18046;SDS011;9148;51.454;13.862;2022-12-07T14:27:58;4.83;;;3.10;;
18046;SDS011;9148;51.454;13.862;2022-12-07T14:30:27;2.30;;;1.87;;
18046;SDS011;9148;51.454;13.862;2022-12-07T14:32:58;1.97;;;1.83;;
18046;SDS011;9148;51.454;13.862;2022-12-07T14:35:26;2.67;;;2.33;;
18046;SDS011;9148;51.454;13.862;2022-12-07T14:37:52;4.27;;;2.23;;
18046;SDS011;9148;51.454;13.862;2022-12-07T14:40:22;4.03;;;2.13;;
18046;SDS011;9148;51.454;13.862;2022-12-07T14:43:02;4.47;;;2.60;;
18046;SDS011;9148;51.454;13.862;2022-12-07T14:45:33;3.20;;;2.13;;
18046;SDS011;9148;51.454;13.862;2022-12-07T14:47:59;2.37;;;2.17;;
18046;SDS011;9148;51.454;13.862;2022-12-07T14:50:24;2.17;;;1.73;;
18046;SDS011;9148;51.454;13.862;2022-12-07T14:53:00;2.87;;;2.47;;
18046;SDS011;9148;51.454;13.862;2022-12-07T14:55:34;2.90;;;2.63;;
18046;SDS011;9148;51.454;13.862;2022-12-07T14:58:00;2.90;;;2.37;;
18046;SDS011;9148;51.454;13.862;2022-12-07T15:00:26;5.30;;;2.20;;
18046;SDS011;9148;51.454;13.862;2022-12-07T15:02:53;5.13;;;1.90;;
18046;SDS011;9148;51.454;13.862;2022-12-07T15:05:20;3.03;;;2.37;;
18046;SDS011;9148;51.454;13.862;2022-12-07T15:07:46;5.23;;;2.57;;
18046;SDS011;9148;51.454;13.862;2022-12-07T15:10:15;5.33;;;3.00;;
18046;SDS011;9148;51.454;13.862;2022-12-07T15:12:47;4.27;;;2.20;;
18046;SDS011;9148;51.454;13.862;2022-12-07T15:15:13;8.03;;;3.50;;
18046;SDS011;9148;51.454;13.862;2022-12-07T15:17:39;4.40;;;2.97;;
18046;SDS011;9148;51.454;13.862;2022-12-07T15:20:05;6.60;;;4.13;;
18046;SDS011;9148;51.454;13.862;2022-12-07T15:22:37;3.03;;;2.37;;
18046;SDS011;9148;51.454;13.862;2022-12-07T15:25:02;4.17;;;2.97;;
18046;SDS011;9148;51.454;13.862;2022-12-07T15:27:29;2.90;;;1.80;;
18046;SDS011;9148;51.454;13.862;2022-12-07T15:29:55;3.97;;;2.00;;
18046;SDS011;9148;51.454;13.862;2022-12-07T15:32:21;1.30;;;1.20;;
18046;SDS011;9148;51.454;13.862;2022-12-07T15:34:47;2.87;;;1.87;;
18046;SDS011;9148;51.454;13.862;2022-12-07T15:37:14;1.97;;;1.40;;
18046;SDS011;9148;51.454;13.862;2022-12-07T15:39:41;3.87;;;3.13;;
18046;SDS011;9148;51.454;13.862;2022-12-07T15:42:07;2.43;;;2.20;;
18046;SDS011;9148;51.454;13.862;2022-12-07T15:44:32;3.70;;;1.27;;
18046;SDS011;9148;51.454;13.862;2022-12-07T15:47:17;2.67;;;1.60;;
18046;SDS011;9148;51.454;13.862;2022-12-07T15:49:42;1.40;;;1.30;;
18046;SDS011;9148;51.454;13.862;2022-12-07T15:52:08;1.90;;;1.53;;
18046;SDS011;9148;51.454;13.862;2022-12-07T15:54:34;2.53;;;1.83;;
18046;SDS011;9148;51.454;13.862;2022-12-07T15:57:00;3.77;;;1.83;;
18046;SDS011;9148;51.454;13.862;2022-12-07T15:59:26;1.80;;;1.30;;
18046;SDS011;9148;51.454;13.862;2022-12-07T16:01:53;4.53;;;2.00;;
18046;SDS011;9148;51.454;13.862;2022-12-07T16:04:19;1.70;;;1.47;;
18046;SDS011;9148;51.454;13.862;2022-12-07T16:06:45;3.17;;;2.47;;
18046;SDS011;9148;51.454;13.862;2022-12-07T16:09:11;1.93;;;1.60;;
18046;SDS011;9148;51.454;13.862;2022-12-07T16:11:37;3.53;;;2.00;;
18046;SDS011;9148;51.454;13.862;2022-12-07T16:14:02;1.90;;;1.80;;
18046;SDS011;9148;51.454;13.862;2022-12-07T16:16:28;1.33;;;1.17;;
18046;SDS011;9148;51.454;13.862;2022-12-07T16:18:54;2.33;;;2.13;;
18046;SDS011;9148;51.454;13.862;2022-12-07T16:21:21;3.03;;;2.60;;
18046;SDS011;9148;51.454;13.862;2022-12-07T16:23:46;2.20;;;2.00;;
18046;SDS011;9148;51.454;13.862;2022-12-07T16:26:16;2.87;;;2.67;;
18046;SDS011;9148;51.454;13.862;2022-12-07T16:28:44;1.47;;;1.37;;
18046;SDS011;9148;51.454;13.862;2022-12-07T16:31:14;2.23;;;2.00;;
18046;SDS011;9148;51.454;13.862;2022-12-07T16:33:43;5.63;;;2.03;;
18046;SDS011;9148;51.454;13.862;2022-12-07T16:36:10;3.03;;;1.83;;
18046;SDS011;9148;51.454;13.862;2022-12-07T16:38:38;3.83;;;2.37;;
18046;SDS011;9148;51.454;13.862;2022-12-07T16:41:04;2.07;;;1.73;;
18046;SDS011;9148;51.454;13.862;2022-12-07T16:43:31;2.53;;;2.23;;
18046;SDS011;9148;51.454;13.862;2022-12-07T16:45:57;2.57;;;1.80;;
18046;SDS011;9148;51.454;13.862;2022-12-07T16:48:23;3.70;;;2.37;;
18046;SDS011;9148;51.454;13.862;2022-12-07T16:50:49;2.20;;;1.93;;
18046;SDS011;9148;51.454;13.862;2022-12-07T16:53:15;6.43;;;2.47;;
18046;SDS011;9148;51.454;13.862;2022-12-07T16:55:41;2.43;;;2.00;;
18046;SDS011;9148;51.454;13.862;2022-12-07T16:58:09;1.53;;;1.43;;
18046;SDS011;9148;51.454;13.862;2022-12-07T17:00:40;2.67;;;1.43;;